Terminal Aerodrome Forecast
Issued by NWS Jackson, MS

Home | Current Version | Previous Version | Text Only | Print | Product List | Glossary On
Versions: 1 2 3 4 5 6 7 8 9 10 11 12 13 14 15 16 17
000
FTUS44 KJAN 032332
TAFJAN
TAF
KJAN 032332Z 0400/0424 25005KT P6SM FEW040 BKN150
     FM040400 19008KT 3SM TSRA SCT020 BKN035CB
     FM040700 19006KT 5SM -SHRA VCTS BKN040CB
     FM041300 21005KT P6SM BKN060
     FM042000 24008KT 6SM -SHRA VCTS OVC050CB=

USA.gov is the U.S. government's official web portal to all federal, state and local government web resources and services.